»·PEaware :: WAT380 KLAX-KTUS

WAT380 :: KLAX-KTUS

FLIGHT INFORMATION

Flight Status: Arrived
Operator:
Walker Air Transport
More flights by this operator :: More flights under this callsign
Pilot: Spencer M. (27733)
Aircraft: CESSNA 550 CITATION 2/S2/BRAVO
(C550)
More flights by this aircraft type
Origin: KLAX Los Angeles Intl
United States
Destination: KTUS Tucson Intl
United States
More flights between these airports :: More routes between these airports
Route: +PNDAH2 TCATE IPL J2 GBN DINGO5
File this flight plan on PilotEdge
Remarks:
Altitude:
(Current/Filed)
33,000ft
Speed:
(Current/Filed)
340kts
Departed: 31-Oct-20 09:24 AM
Arrived: 31-Oct-20 11:02 AM
Distance/Time
Traveled:
391nm/1:38
Distance/Time
To Go:
Arrived

Flight Plot

Page will automatically refresh every two minutes.

Flight plan parsing failed; only flown route is shown


Map Options




Map Legend


Flown Route
Filed Route
Departure Airport
Arrival Airport
Navaid (VOR, NDB)
Fix

Horizontal Profiles

Position Reports

Time Latitude Longitude Heading Altitude Ground
Speed
31-Oct-20 09:07 33.933444 -118.400002 83 130ft 0kts
31-Oct-20 09:08 33.933444 -118.400002 83 130ft 0kts
31-Oct-20 09:09 33.933444 -118.400002 83 130ft 0kts
31-Oct-20 09:10 33.933444 -118.400002 83 130ft 0kts
31-Oct-20 09:11 33.933444 -118.400002 83 130ft 0kts
31-Oct-20 09:12 33.933444 -118.400002 83 130ft 0kts
31-Oct-20 09:13 33.933444 -118.400002 83 130ft 0kts
31-Oct-20 09:14 33.933444 -118.400002 83 130ft 0kts
31-Oct-20 09:15 33.933444 -118.400002 83 130ft 0kts
31-Oct-20 09:16 33.933866 -118.398633 63 130ft 11kts
31-Oct-20 09:17 33.934688 -118.396805 83 130ft 10kts
31-Oct-20 09:18 33.935317 -118.390606 83 130ft 20kts
31-Oct-20 09:19 33.935962 -118.384289 85 130ft 14kts
31-Oct-20 09:20 33.936487 -118.382794 1 130ft 0kts
31-Oct-20 09:21 33.936487 -118.382794 1 130ft 0kts
31-Oct-20 09:22 33.936539 -118.382796 357 130ft 2kts
31-Oct-20 09:23 33.936097 -118.395532 263 139ft 135kts
31-Oct-20 09:24 33.929987 -118.451311 254 2109ft 186kts
31-Oct-20 09:25 33.899133 -118.505285 231 4229ft 206kts
31-Oct-20 09:26 33.857735 -118.556477 199 6342ft 230kts
31-Oct-20 09:27 33.793363 -118.547183 165 8462ft 243kts
31-Oct-20 09:28 33.726501 -118.528703 165 10569ft 253kts
31-Oct-20 09:29 33.676860 -118.475810 114 12266ft 263kts
31-Oct-20 09:30 33.644493 -118.398251 114 14375ft 256kts
31-Oct-20 09:31 33.612609 -118.323930 114 16472ft 246kts
31-Oct-20 09:32 33.582143 -118.253372 114 18568ft 231kts
31-Oct-20 09:33 33.553836 -118.187974 114 20656ft 210kts
31-Oct-20 09:34 33.528969 -118.130545 114 22713ft 177kts
31-Oct-20 09:35 33.505560 -118.075885 114 23720ft 197kts
31-Oct-20 09:36 33.479168 -118.014612 115 24730ft 217kts
31-Oct-20 09:37 33.438791 -117.958558 137 25804ft 231kts
31-Oct-20 09:38 33.390203 -117.907091 138 26906ft 237kts
31-Oct-20 09:39 33.342949 -117.851997 116 28014ft 240kts
31-Oct-20 09:40 33.315263 -117.779508 115 29116ft 239kts
31-Oct-20 09:41 33.287970 -117.708224 116 30203ft 234kts
31-Oct-20 09:42 33.260952 -117.638051 117 31193ft 231kts
31-Oct-20 09:43 33.234526 -117.569549 118 32179ft 223kts
31-Oct-20 09:44 33.208987 -117.503517 119 32989ft 220kts
31-Oct-20 09:45 33.181971 -117.433907 118 33002ft 241kts
31-Oct-20 09:46 33.152870 -117.358920 118 33001ft 257kts
31-Oct-20 09:47 33.121791 -117.279052 119 32999ft 274kts
31-Oct-20 09:48 33.088828 -117.194525 119 32997ft 289kts
31-Oct-20 09:49 33.054195 -117.105936 119 32995ft 300kts
31-Oct-20 09:51 33.018195 -117.014098 119 33001ft 308kts
31-Oct-20 09:52 32.981490 -116.920726 119 33010ft 314kts
31-Oct-20 09:53 32.943809 -116.825176 119 33016ft 324kts
31-Oct-20 09:54 32.904749 -116.726373 119 33016ft 334kts
31-Oct-20 09:55 32.864560 -116.625012 119 33022ft 342kts
31-Oct-20 09:56 32.823701 -116.522264 120 33022ft 347kts
31-Oct-20 09:57 32.802434 -116.409101 97 33023ft 361kts
31-Oct-20 09:58 32.796636 -116.289098 98 33007ft 364kts
31-Oct-20 09:59 32.789814 -116.168697 98 33001ft 365kts
31-Oct-20 10:00 32.782630 -116.048384 98 32994ft 366kts
31-Oct-20 10:01 32.775297 -115.927801 99 32995ft 366kts
31-Oct-20 10:02 32.767838 -115.807174 99 32994ft 367kts
31-Oct-20 10:03 32.760245 -115.686159 99 32994ft 367kts
31-Oct-20 10:04 32.752518 -115.564927 99 32995ft 368kts
31-Oct-20 10:05 32.756029 -115.442887 88 32996ft 373kts
31-Oct-20 10:06 32.764994 -115.319466 89 32991ft 374kts
31-Oct-20 10:07 32.774862 -115.196609 89 32991ft 375kts
31-Oct-20 10:07 32.783255 -115.093760 88 32992ft 375kts
31-Oct-20 10:09 32.794895 -114.949604 88 33002ft 376kts
31-Oct-20 10:09 32.803132 -114.846251 89 33003ft 377kts
31-Oct-20 10:11 32.814521 -114.701526 89 33004ft 378kts
31-Oct-20 10:11 32.822599 -114.597564 89 33005ft 379kts
31-Oct-20 10:12 32.832192 -114.472601 89 33006ft 381kts
31-Oct-20 10:13 32.841740 -114.346547 89 33006ft 382kts
31-Oct-20 10:14 32.851152 -114.220717 89 33001ft 382kts
31-Oct-20 10:15 32.860414 -114.095102 89 33002ft 382kts
31-Oct-20 10:16 32.869563 -113.969184 90 33002ft 383kts
31-Oct-20 10:17 32.878631 -113.842557 90 33004ft 385kts
31-Oct-20 10:18 32.887620 -113.715306 89 33005ft 386kts
31-Oct-20 10:19 32.896513 -113.587543 90 33007ft 387kts
31-Oct-20 10:20 32.905276 -113.459808 90 33008ft 387kts
31-Oct-20 10:21 32.913897 -113.332125 91 32995ft 387kts
31-Oct-20 10:22 32.922381 -113.204680 91 33002ft 386kts
31-Oct-20 10:23 32.930733 -113.077115 90 33003ft 386kts
31-Oct-20 10:24 32.938923 -112.949953 91 33010ft 386kts
31-Oct-20 10:25 32.946998 -112.822623 90 33020ft 384kts
31-Oct-20 10:26 32.954869 -112.696867 91 33024ft 376kts
31-Oct-20 10:27 32.925204 -112.588041 125 33013ft 339kts
31-Oct-20 10:28 32.885026 -112.488234 123 32998ft 331kts
31-Oct-20 10:29 32.847026 -112.389941 123 32998ft 322kts
31-Oct-20 10:30 32.809978 -112.294188 124 32943ft 318kts
31-Oct-20 10:31 32.771861 -112.196152 122 31351ft 333kts
31-Oct-20 10:32 32.708048 -112.151690 213 29589ft 289kts
31-Oct-20 10:33 32.707146 -112.241393 291 27127ft 320kts
31-Oct-20 10:34 32.790740 -112.261893 10 24640ft 339kts
31-Oct-20 10:35 32.879077 -112.240334 6 22133ft 313kts
31-Oct-20 10:36 32.942940 -112.187792 83 19644ft 297kts
31-Oct-20 10:37 32.910164 -112.108718 133 17489ft 270kts
31-Oct-20 10:38 32.860367 -112.041021 133 15580ft 272kts
31-Oct-20 10:39 32.810669 -111.973188 133 14214ft 274kts
31-Oct-20 10:40 32.760216 -111.904167 132 13219ft 280kts
31-Oct-20 10:41 32.708004 -111.832843 132 12228ft 294kts
31-Oct-20 10:42 32.654149 -111.759382 132 11991ft 297kts
31-Oct-20 10:43 32.600004 -111.685679 132 11993ft 295kts
31-Oct-20 10:44 32.548836 -111.616130 132 11998ft 259kts
31-Oct-20 10:45 32.504503 -111.556052 132 11998ft 229kts
31-Oct-20 10:46 32.466949 -111.498060 121 12001ft 216kts
31-Oct-20 10:47 32.436276 -111.434425 119 10984ft 231kts
31-Oct-20 10:48 32.406123 -111.370005 119 9252ft 216kts
31-Oct-20 10:49 32.376800 -111.308796 120 7347ft 212kts
31-Oct-20 10:50 32.348368 -111.250015 120 6005ft 183kts
31-Oct-20 10:51 32.325479 -111.205040 121 6076ft 152kts
31-Oct-20 10:52 32.301932 -111.161752 131 6002ft 160kts
31-Oct-20 10:53 32.270658 -111.123174 132 5581ft 162kts
31-Oct-20 10:54 32.240953 -111.086907 133 5577ft 147kts
31-Oct-20 10:55 32.213061 -111.053804 136 4911ft 127kts
31-Oct-20 10:56 32.190400 -111.027110 134 4662ft 118kts
31-Oct-20 10:57 32.168088 -111.000630 135 3869ft 107kts
31-Oct-20 10:58 32.148377 -110.977359 134 3428ft 95kts
31-Oct-20 10:59 32.129703 -110.955308 135 2895ft 94kts
31-Oct-20 11:00 32.113732 -110.936614 135 2648ft 44kts
31-Oct-20 11:01 32.112728 -110.932897 315 2648ft 11kts
31-Oct-20 11:02 32.115882 -110.936603 314 2648ft 22kts
31-Oct-20 11:03 32.118772 -110.938388 314 2648ft 0kts

Navigation Log

Ident Type
Flight plan parsing failed, navigation log unavailable